Time;durP1;ratioP1;P1;durP2;ratioP2;P2;SDS_P1;SDS_P2;PMS_P1;PMS_P2;Temp;Humidity;BMP_temperature;BMP_pressure;BME280_temperature;BME280_humidity;BME280_pressure;Samples;Min_cycle;Max_cycle;Signal;HPM_P1;HPM_P2
2023/10/31 00:01:49;;;;;;;16.52;8.27;;;;;;;10.83;100.00;99347.47;4978173;28;20427;-88
2023/10/31 00:04:15;;;;;;;13.43;10.02;;;;;;;10.83;100.00;99352.94;4992562;28;20120;-88
2023/10/31 00:06:40;;;;;;;23.40;11.98;;;;;;;10.74;100.00;99360.25;4974601;28;20484;-87
2023/10/31 00:09:06;;;;;;;18.20;11.80;;;;;;;10.73;100.00;99364.00;4973876;28;20034;-89
2023/10/31 00:11:31;;;;;;;29.17;15.98;;;;;;;10.78;100.00;99363.50;5012077;28;20041;-88
2023/10/31 00:13:57;;;;;;;30.45;15.05;;;;;;;10.65;100.00;99362.03;4981663;28;20045;-88
2023/10/31 00:16:22;;;;;;;27.20;16.50;;;;;;;10.73;100.00;99365.88;5016053;28;20034;-88
2023/10/31 00:18:49;;;;;;;28.38;18.58;;;;;;;10.72;100.00;99361.41;4999555;28;20101;-93
2023/10/31 00:21:15;;;;;;;33.97;18.55;;;;;;;10.65;100.00;99378.47;4992544;28;20014;-94
2023/10/31 00:23:47;;;;;;;33.33;19.02;;;;;;;10.57;100.00;99381.13;5006649;28;20030;-95
2023/10/31 00:26:12;;;;;;;27.00;18.05;;;;;;;10.52;100.00;99383.47;4992089;28;20032;-93
2023/10/31 00:28:38;;;;;;;33.53;19.33;;;;;;;10.63;100.00;99393.34;5005344;28;20057;-94
2023/10/31 00:31:07;;;;;;;32.72;19.15;;;;;;;10.48;100.00;99399.38;4984343;28;20053;-95
2023/10/31 00:33:34;;;;;;;28.92;18.83;;;;;;;10.56;100.00;99386.75;4969659;28;20076;-93
2023/10/31 00:36:01;;;;;;;31.67;18.83;;;;;;;10.61;100.00;99407.19;5000361;28;20408;-95
2023/10/31 00:38:28;;;;;;;28.52;19.30;;;;;;;10.64;100.00;99398.66;4965032;28;20031;-96
2023/10/31 00:40:54;;;;;;;31.15;18.38;;;;;;;10.62;100.00;99406.13;4984465;28;20471;-94
2023/10/31 00:43:20;;;;;;;32.65;17.85;;;;;;;10.61;100.00;99414.53;4984389;28;20026;-94
2023/10/31 00:45:45;;;;;;;27.25;17.35;;;;;;;10.57;100.00;99408.50;5000327;28;20041;-95
2023/10/31 00:48:12;;;;;;;33.42;18.77;;;;;;;10.63;100.00;99410.63;5000365;28;20294;-94
2023/10/31 00:50:37;;;;;;;29.23;16.75;;;;;;;10.58;100.00;99412.97;4971343;28;20034;-94
2023/10/31 00:53:03;;;;;;;28.27;15.93;;;;;;;10.70;100.00;99418.19;4999013;28;20412;-95
2023/10/31 00:55:28;;;;;;;28.95;15.60;;;;;;;10.65;100.00;99422.25;4967852;28;20045;-96
2023/10/31 00:57:54;;;;;;;26.60;14.35;;;;;;;10.57;100.00;99421.34;4983813;28;20507;-96
2023/10/31 01:00:20;;;;;;;29.02;14.55;;;;;;;10.59;100.00;99425.66;4999680;28;20377;-96
2023/10/31 01:02:45;;;;;;;30.77;14.50;;;;;;;10.54;100.00;99425.22;4983459;28;20111;-96
2023/10/31 01:05:11;;;;;;;22.77;12.77;;;;;;;10.50;100.00;99431.19;4978824;28;20030;-96
2023/10/31 01:07:37;;;;;;;22.63;12.85;;;;;;;10.60;100.00;99426.50;4983865;28;20029;-94
2023/10/31 01:10:03;;;;;;;20.60;12.10;;;;;;;10.53;100.00;99433.63;4999666;28;20030;-94
2023/10/31 01:12:30;;;;;;;20.15;12.20;;;;;;;10.54;100.00;99432.59;4984897;28;20568;-95
2023/10/31 01:14:58;;;;;;;21.00;9.98;;;;;;;10.55;100.00;99440.66;5000717;28;20052;-94
2023/10/31 01:17:24;;;;;;;21.85;9.80;;;;;;;10.56;100.00;99439.63;4970434;28;20038;-94
2023/10/31 01:19:51;;;;;;;20.25;10.23;;;;;;;10.58;100.00;99439.50;4995818;28;20048;-95
2023/10/31 01:22:16;;;;;;;18.33;9.20;;;;;;;10.54;100.00;99440.81;4997497;28;20010;-95
2023/10/31 01:24:42;;;;;;;16.27;7.97;;;;;;;10.51;100.00;99443.84;4982955;28;20045;-95
2023/10/31 01:27:09;;;;;;;23.58;9.18;;;;;;;10.54;100.00;99443.53;5016303;28;20034;-95
2023/10/31 01:29:34;;;;;;;17.98;9.10;;;;;;;10.54;100.00;99447.13;4967386;28;20034;-94
2023/10/31 01:32:00;;;;;;;28.15;11.63;;;;;;;10.51;100.00;99452.06;5013022;28;20088;-95
2023/10/31 01:34:27;;;;;;;21.63;11.35;;;;;;;10.53;100.00;99448.16;4979667;28;20394;-95
2023/10/31 01:36:53;;;;;;;29.48;12.82;;;;;;;10.59;100.00;99453.00;4963497;28;20045;-94
2023/10/31 01:39:18;;;;;;;32.60;13.38;;;;;;;10.55;100.00;99451.59;4969817;28;20061;-94
2023/10/31 01:41:44;;;;;;;40.63;17.52;;;;;;;10.49;100.00;99460.41;4996037;28;20119;-94
2023/10/31 01:44:10;;;;;;;39.80;19.33;;;;;;;10.58;100.00;99464.13;4983175;28;20033;-95
2023/10/31 01:46:36;;;;;;;47.22;21.42;;;;;;;10.68;100.00;99461.31;4982518;28;20029;-94
2023/10/31 01:49:02;;;;;;;46.13;21.58;;;;;;;10.59;100.00;99457.59;4982627;28;20524;-94
2023/10/31 01:51:28;;;;;;;44.03;20.92;;;;;;;10.62;100.00;99468.25;4979373;28;20062;-95
2023/10/31 01:53:55;;;;;;;54.78;24.13;;;;;;;10.67;100.00;99463.16;4976425;28;20022;-95
2023/10/31 01:56:22;;;;;;;46.90;22.20;;;;;;;10.62;100.00;99469.09;4998961;28;20033;-95
2023/10/31 01:58:48;;;;;;;55.72;23.98;;;;;;;10.72;100.00;99470.91;5016449;28;20029;-95
2023/10/31 02:01:14;;;;;;;60.90;24.75;;;;;;;10.74;100.00;99466.13;4998762;28;20124;-96
2023/10/31 02:03:40;;;;;;;59.28;25.13;;;;;;;10.80;100.00;99465.50;4998690;28;20037;-94
2023/10/31 02:06:06;;;;;;;47.78;24.08;;;;;;;10.74;100.00;99464.28;4998614;28;20045;-94
2023/10/31 02:08:32;;;;;;;52.90;24.75;;;;;;;10.76;100.00;99472.31;4978208;28;20040;-95
2023/10/31 02:10:58;;;;;;;60.40;25.20;;;;;;;10.75;100.00;99474.19;4967337;28;20041;-95
2023/10/31 02:13:24;;;;;;;59.85;26.85;;;;;;;10.78;100.00;99470.28;5003860;28;20022;-95
2023/10/31 02:15:50;;;;;;;73.43;25.67;;;;;;;10.79;100.00;99464.66;5017911;28;20032;-95
2023/10/31 02:18:15;;;;;;;59.42;24.65;;;;;;;10.75;100.00;99473.34;5001084;28;20097;-94
2023/10/31 02:20:42;;;;;;;54.72;24.95;;;;;;;10.69;100.00;99469.38;5026232;28;20033;-95
2023/10/31 02:23:08;;;;;;;52.60;25.20;;;;;;;10.69;100.00;99480.31;4983949;28;20038;-95
2023/10/31 02:25:35;;;;;;;49.58;23.80;;;;;;;10.71;100.00;99470.06;4971521;28;20041;-96
2023/10/31 02:28:00;;;;;;;56.63;24.40;;;;;;;10.71;100.00;99464.59;4959121;28;20025;-95
2023/10/31 02:30:27;;;;;;;58.15;26.25;;;;;;;10.73;100.00;99464.44;4989200;28;20044;-95
2023/10/31 02:32:58;;;;;;;57.92;25.30;;;;;;;10.76;100.00;99475.06;5013018;28;20018;-95
2023/10/31 02:35:23;;;;;;;55.03;24.50;;;;;;;10.74;100.00;99461.53;4983268;28;20049;-96
2023/10/31 02:37:50;;;;;;;55.05;25.63;;;;;;;10.70;100.00;99460.13;4982795;28;20105;-94
2023/10/31 02:40:18;;;;;;;51.90;24.35;;;;;;;10.67;100.00;99460.41;4984018;28;20034;-94
2023/10/31 02:42:44;;;;;;;57.67;26.75;;;;;;;10.71;100.00;99467.31;5014632;28;20036;-93
2023/10/31 02:45:09;;;;;;;55.28;25.50;;;;;;;10.69;100.00;99473.94;4979455;28;20041;-94
2023/10/31 02:47:35;;;;;;;48.42;22.85;;;;;;;10.64;100.00;99469.81;4999521;28;20038;-93
2023/10/31 02:50:01;;;;;;;46.85;23.45;;;;;;;10.67;100.00;99479.59;4999894;28;20068;-95
2023/10/31 02:52:27;;;;;;;49.10;23.58;;;;;;;10.74;100.00;99475.22;4980579;28;20026;-95
2023/10/31 02:54:53;;;;;;;45.92;21.50;;;;;;;10.71;100.00;99477.38;5002834;28;20034;-96
2023/10/31 02:57:19;;;;;;;51.10;24.00;;;;;;;10.81;100.00;99480.94;4988591;28;20018;-95
2023/10/31 02:59:46;;;;;;;54.80;24.02;;;;;;;10.71;100.00;99481.00;5015977;28;20057;-95
2023/10/31 03:02:12;;;;;;;46.25;22.15;;;;;;;10.73;100.00;99478.13;4994526;28;20040;-95
2023/10/31 03:04:38;;;;;;;50.83;22.55;;;;;;;10.75;100.00;99474.19;5000236;28;20030;-96
2023/10/31 03:07:05;;;;;;;50.70;23.95;;;;;;;10.82;100.00;99480.78;5002768;28;20034;-96
2023/10/31 03:09:32;;;;;;;45.55;22.80;;;;;;;10.89;100.00;99480.13;4994752;28;20076;-95
2023/10/31 03:11:57;;;;;;;45.20;20.85;;;;;;;10.78;100.00;99481.25;4981229;28;20523;-95
2023/10/31 03:14:24;;;;;;;39.00;19.75;;;;;;;10.83;100.00;99485.22;4981941;28;20120;-96
2023/10/31 03:16:50;;;;;;;50.47;21.98;;;;;;;10.91;100.00;99480.84;4998775;28;20040;-96
2023/10/31 03:19:16;;;;;;;40.15;22.17;;;;;;;10.84;100.00;99489.69;4989456;28;20030;-96
2023/10/31 03:21:42;;;;;;;42.78;21.88;;;;;;;10.74;100.00;99485.28;4975541;28;20057;-96
2023/10/31 03:24:07;;;;;;;42.05;21.45;;;;;;;10.67;100.00;99482.31;4984744;28;20038;-96
2023/10/31 03:26:34;;;;;;;44.55;21.60;;;;;;;10.76;100.00;99497.81;4967373;28;20041;-96
2023/10/31 03:29:00;;;;;;;44.67;20.58;;;;;;;10.72;100.00;99501.88;5001203;28;20022;-96
2023/10/31 03:31:26;;;;;;;43.33;21.35;;;;;;;10.79;100.00;99496.63;4993756;28;20065;-96
2023/10/31 03:33:51;;;;;;;46.50;22.27;;;;;;;10.76;100.00;99507.91;4987026;28;20054;-96
2023/10/31 03:36:17;;;;;;;44.10;21.13;;;;;;;10.79;100.00;99504.84;4989941;28;20031;-96
2023/10/31 03:38:44;;;;;;;49.67;22.40;;;;;;;10.83;100.00;99506.25;5007749;28;20030;-95
2023/10/31 03:41:10;;;;;;;45.22;21.55;;;;;;;10.89;100.00;99512.97;4975141;28;20043;-95
2023/10/31 03:43:37;;;;;;;40.95;20.48;;;;;;;10.75;100.00;99523.47;4994317;28;20042;-94
2023/10/31 03:46:03;;;;;;;39.40;18.73;;;;;;;10.80;100.00;99523.84;4975707;28;20039;-95
2023/10/31 03:48:29;;;;;;;42.25;20.25;;;;;;;10.87;100.00;99524.13;4972114;28;20073;-94
2023/10/31 03:50:55;;;;;;;40.45;20.50;;;;;;;10.82;100.00;99526.44;4982728;28;20404;-88
2023/10/31 03:53:21;;;;;;;43.20;19.17;;;;;;;10.78;100.00;99536.00;4975678;28;20039;-87
2023/10/31 03:55:47;;;;;;;43.15;19.30;;;;;;;10.84;100.00;99540.84;4993189;28;20038;-88
2023/10/31 03:58:12;;;;;;;39.22;18.92;;;;;;;10.84;100.00;99543.59;4974392;28;20029;-88
2023/10/31 04:00:42;;;;;;;37.85;19.27;;;;;;;10.89;100.00;99543.97;4976674;28;20035;-88
2023/10/31 04:03:09;;;;;;;38.58;20.10;;;;;;;10.84;100.00;99546.34;4959632;28;20030;-88
2023/10/31 04:05:34;;;;;;;43.15;21.08;;;;;;;10.84;100.00;99549.06;4975322;28;20037;-86
2023/10/31 04:08:01;;;;;;;39.75;20.73;;;;;;;10.83;100.00;99550.06;4995665;28;20473;-88
2023/10/31 04:10:27;;;;;;;42.42;19.67;;;;;;;10.86;100.00;99552.50;4994189;28;20042;-88
2023/10/31 04:12:53;;;;;;;47.17;21.00;;;;;;;10.80;100.00;99551.22;4961096;28;20030;-88
2023/10/31 04:15:19;;;;;;;41.08;21.45;;;;;;;10.78;100.00;99561.50;4957442;28;20035;-88
2023/10/31 04:17:46;;;;;;;46.63;21.65;;;;;;;10.81;100.00;99552.97;5010725;28;20084;-88
2023/10/31 04:20:11;;;;;;;41.65;22.98;;;;;;;10.76;100.00;99558.06;4976730;28;20116;-88
2023/10/31 04:22:37;;;;;;;43.15;22.35;;;;;;;10.80;100.00;99567.66;4977512;28;20074;-89
2023/10/31 04:25:03;;;;;;;42.75;22.20;;;;;;;10.78;100.00;99564.22;4963363;28;20184;-89
2023/10/31 04:27:30;;;;;;;44.97;23.00;;;;;;;10.75;100.00;99569.16;4956211;28;20061;-89
2023/10/31 04:29:57;;;;;;;50.50;23.58;;;;;;;10.78;100.00;99577.91;4961982;28;20027;-88
2023/10/31 04:32:24;;;;;;;44.60;22.30;;;;;;;10.71;100.00;99584.16;4961793;28;20038;-89
2023/10/31 04:34:49;;;;;;;44.85;24.35;;;;;;;10.84;100.00;99581.94;4990531;28;20050;-89
2023/10/31 04:37:17;;;;;;;45.17;24.77;;;;;;;10.82;100.00;99584.81;4964365;28;20106;-89
2023/10/31 04:39:43;;;;;;;42.92;23.98;;;;;;;10.74;100.00;99579.25;4974138;28;20030;-89
2023/10/31 04:42:08;;;;;;;43.08;22.80;;;;;;;10.81;100.00;99585.81;4964333;28;20045;-89
2023/10/31 04:44:33;;;;;;;52.63;25.17;;;;;;;10.76;100.00;99584.56;4977935;28;20126;-89
2023/10/31 04:46:59;;;;;;;42.63;24.38;;;;;;;10.77;100.00;99586.28;4959853;28;20035;-88
2023/10/31 04:49:24;;;;;;;43.40;24.33;;;;;;;10.73;100.00;99593.09;4963927;28;20065;-89
2023/10/31 04:51:50;;;;;;;44.10;22.65;;;;;;;10.75;100.00;99608.34;4948778;28;20030;-88
2023/10/31 04:54:15;;;;;;;41.65;22.42;;;;;;;10.75;100.00;99600.13;4948926;28;20041;-88
2023/10/31 04:56:43;;;;;;;37.90;22.27;;;;;;;10.75;100.00;99604.75;4942978;28;20057;-89
2023/10/31 04:59:08;;;;;;;45.10;23.92;;;;;;;10.78;100.00;99618.97;4951468;28;20033;-89
2023/10/31 05:01:33;;;;;;;39.65;21.77;;;;;;;10.76;100.00;99622.91;4945206;28;20043;-86
2023/10/31 05:04:02;;;;;;;38.83;21.13;;;;;;;10.70;100.00;99618.03;4957509;28;20039;-88
2023/10/31 05:06:28;;;;;;;36.38;21.70;;;;;;;10.75;100.00;99622.03;4944854;29;20077;-90
2023/10/31 05:08:53;;;;;;;37.22;21.20;;;;;;;10.75;100.00;99627.50;4951314;28;20067;-90
2023/10/31 05:11:21;;;;;;;32.05;20.45;;;;;;;10.77;100.00;99632.81;4942215;29;20505;-90
2023/10/31 05:13:47;;;;;;;40.33;21.77;;;;;;;10.70;100.00;99631.72;4973375;28;20030;-89
2023/10/31 05:16:13;;;;;;;39.08;22.55;;;;;;;10.70;100.00;99635.31;4984828;28;20032;-89
2023/10/31 05:18:39;;;;;;;38.38;22.20;;;;;;;10.70;100.00;99640.78;4944682;29;20041;-92
2023/10/31 05:21:05;;;;;;;43.92;23.45;;;;;;;10.73;100.00;99640.47;4958950;28;20027;-89
2023/10/31 05:23:31;;;;;;;37.58;21.58;;;;;;;10.60;100.00;99642.72;4959804;28;20027;-89
2023/10/31 05:25:56;;;;;;;38.50;22.02;;;;;;;10.57;100.00;99648.50;4979204;28;20026;-90
2023/10/31 05:28:23;;;;;;;42.17;22.52;;;;;;;10.51;100.00;99647.25;4968160;28;20031;-88
2023/10/31 05:30:49;;;;;;;39.92;21.45;;;;;;;10.47;100.00;99645.81;4980730;28;20396;-88
2023/10/31 05:33:17;;;;;;;37.95;19.90;;;;;;;10.53;100.00;99642.47;4990854;28;20067;-89
2023/10/31 05:35:42;;;;;;;23.73;13.20;;;;;;;10.32;100.00;99639.09;4964063;28;20034;-88
2023/10/31 05:38:08;;;;;;;27.60;15.25;;;;;;;10.40;100.00;99642.81;5014798;28;20653;-89
2023/10/31 05:40:35;;;;;;;27.83;15.10;;;;;;;10.37;100.00;99651.31;4979483;28;20022;-88
2023/10/31 05:43:02;;;;;;;30.15;15.52;;;;;;;10.46;100.00;99655.91;4998384;28;20048;-90
2023/10/31 05:45:27;;;;;;;37.47;18.40;;;;;;;10.43;100.00;99652.59;4997334;28;20021;-86
2023/10/31 05:47:53;;;;;;;45.72;21.33;;;;;;;10.40;100.00;99656.50;4994666;28;20053;-86
2023/10/31 05:50:18;;;;;;;43.78;23.33;;;;;;;10.33;100.00;99663.59;4978949;28;20061;-85
2023/10/31 05:52:44;;;;;;;46.63;24.00;;;;;;;10.38;100.00;99660.38;4994410;28;20033;-88
2023/10/31 05:55:09;;;;;;;48.15;24.42;;;;;;;10.37;100.00;99662.25;4978066;28;20087;-87
2023/10/31 05:57:35;;;;;;;47.65;25.83;;;;;;;10.39;100.00;99657.50;4996595;28;20374;-88
2023/10/31 06:00:03;;;;;;;44.92;24.63;;;;;;;10.40;100.00;99661.97;4995391;28;20042;-88
2023/10/31 06:02:32;;;;;;;44.90;25.30;;;;;;;10.40;100.00;99675.66;4993992;28;20041;-87
2023/10/31 06:04:57;;;;;;;47.30;23.98;;;;;;;10.42;100.00;99668.13;4979515;28;20030;-87
2023/10/31 06:07:24;;;;;;;46.92;24.80;;;;;;;10.39;100.00;99671.16;4987320;28;20037;-90
2023/10/31 06:09:50;;;;;;;43.42;23.90;;;;;;;10.54;100.00;99677.00;4975844;28;20041;-91
2023/10/31 06:12:15;;;;;;;44.65;24.55;;;;;;;10.59;100.00;99684.78;4996557;28;20033;-91
2023/10/31 06:14:41;;;;;;;49.72;23.88;;;;;;;10.57;100.00;99689.56;4990037;28;20542;-92
2023/10/31 06:17:06;;;;;;;46.00;23.95;;;;;;;10.66;100.00;99700.47;4980818;28;20038;-93
2023/10/31 06:19:45;;;;;;;46.05;23.88;;;;;;;10.69;100.00;99701.16;4998299;28;20032;-93
2023/10/31 06:22:11;;;;;;;42.45;23.70;;;;;;;10.62;100.00;99698.16;4983793;28;20029;-91
2023/10/31 06:24:37;;;;;;;37.22;22.48;;;;;;;10.59;100.00;99703.94;4964890;28;20091;-94
2023/10/31 06:27:03;;;;;;;41.78;22.85;;;;;;;10.54;100.00;99700.78;4973761;28;20129;-94
2023/10/31 06:29:28;;;;;;;39.67;21.63;;;;;;;10.47;100.00;99712.34;4962539;28;20037;-94
2023/10/31 06:31:56;;;;;;;38.38;21.17;;;;;;;10.47;100.00;99714.22;4997800;28;20034;-94
2023/10/31 06:34:23;;;;;;;35.83;21.58;;;;;;;10.53;100.00;99721.84;4996537;28;20073;-95
2023/10/31 06:36:49;;;;;;;35.38;20.70;;;;;;;10.48;100.00;99716.81;4966701;28;20030;-93
2023/10/31 06:39:14;;;;;;;37.78;21.55;;;;;;;10.54;100.00;99729.03;4978257;28;20401;-93
2023/10/31 06:41:41;;;;;;;35.42;20.05;;;;;;;10.42;100.00;99725.59;4945991;28;20061;-94
2023/10/31 06:44:06;;;;;;;36.58;20.67;;;;;;;10.44;100.00;99730.94;4979327;28;20125;-93
2023/10/31 06:46:32;;;;;;;38.75;20.02;;;;;;;10.46;100.00;99735.25;4981253;28;20065;-96
2023/10/31 06:48:58;;;;;;;32.88;20.02;;;;;;;10.41;100.00;99731.22;4978389;28;20544;-93
2023/10/31 06:51:24;;;;;;;36.58;20.65;;;;;;;10.38;100.00;99737.00;4962154;28;20046;-94
2023/10/31 06:53:51;;;;;;;35.25;19.58;;;;;;;10.40;100.00;99740.47;4981001;28;20112;-95
2023/10/31 06:56:16;;;;;;;35.67;20.50;;;;;;;10.47;100.00;99742.44;4981358;28;20065;-95
2023/10/31 06:58:42;;;;;;;35.72;20.98;;;;;;;10.43;100.00;99751.97;4976437;28;20373;-96
2023/10/31 07:01:07;;;;;;;40.88;21.75;;;;;;;10.36;100.00;99753.56;4964558;28;20628;-96
2023/10/31 07:03:33;;;;;;;36.35;22.52;;;;;;;10.52;100.00;99758.41;4997909;28;20056;-96
2023/10/31 07:05:59;;;;;;;45.08;22.48;;;;;;;10.56;100.00;99759.88;5001513;28;20065;-96
2023/10/31 07:08:26;;;;;;;39.55;22.77;;;;;;;10.48;100.00;99765.22;4964156;28;20487;-95
2023/10/31 07:10:52;;;;;;;44.60;23.33;;;;;;;10.54;100.00;99766.47;4997930;28;20026;-96
2023/10/31 07:13:17;;;;;;;40.00;23.83;;;;;;;10.50;100.00;99762.34;4980154;28;20038;-92
2023/10/31 07:15:44;;;;;;;48.10;23.88;;;;;;;10.64;100.00;99768.19;4979706;28;20117;-90
2023/10/31 07:18:09;;;;;;;38.65;22.88;;;;;;;10.57;100.00;99775.25;4981085;28;20487;-89
2023/10/31 07:20:35;;;;;;;35.90;22.65;;;;;;;10.58;100.00;99773.41;4971185;28;20056;-88
2023/10/31 07:23:02;;;;;;;34.28;22.23;;;;;;;10.63;100.00;99771.94;4962691;28;20143;-87
2023/10/31 07:25:35;;;;;;;35.20;21.05;;;;;;;10.60;100.00;99768.63;4998051;28;20030;-87
2023/10/31 07:28:04;;;;;;;35.42;21.88;;;;;;;10.57;100.00;99774.41;4984468;28;20022;-90
2023/10/31 07:30:29;;;;;;;35.72;22.15;;;;;;;10.58;100.00;99773.41;4973455;28;20660;-91
2023/10/31 07:32:55;;;;;;;29.63;19.17;;;;;;;10.43;100.00;99773.00;4966171;28;20025;-90
2023/10/31 07:35:20;;;;;;;31.88;19.73;;;;;;;10.51;100.00;99781.34;4984269;28;20052;-92
2023/10/31 07:37:46;;;;;;;31.58;19.00;;;;;;;10.53;100.00;99781.19;5002411;28;20056;-93
2023/10/31 07:40:12;;;;;;;29.08;18.88;;;;;;;10.51;100.00;99794.16;4968837;28;20494;-94
2023/10/31 07:42:37;;;;;;;33.58;19.25;;;;;;;10.51;100.00;99789.56;4969141;28;20030;-91
2023/10/31 07:45:03;;;;;;;26.73;18.27;;;;;;;10.59;100.00;99786.94;4969149;28;20566;-91
2023/10/31 07:47:28;;;;;;;29.27;16.95;;;;;;;10.58;100.00;99787.09;4987485;28;20038;-92
2023/10/31 07:49:54;;;;;;;25.55;15.68;;;;;;;10.53;100.00;99783.94;4993419;28;20027;-93
2023/10/31 07:52:19;;;;;;;25.35;15.73;;;;;;;10.62;100.00;99786.63;4994874;28;20045;-91
2023/10/31 07:54:45;;;;;;;23.05;15.20;;;;;;;10.64;100.00;99775.53;4997143;28;20030;-94
2023/10/31 07:57:10;;;;;;;23.52;15.07;;;;;;;10.72;100.00;99789.31;4986610;28;20494;-91
2023/10/31 07:59:36;;;;;;;23.92;14.88;;;;;;;10.62;100.00;99783.88;5000556;28;20038;-92
2023/10/31 08:02:03;;;;;;;22.77;14.10;;;;;;;10.66;100.00;99790.78;4984403;28;20025;-92
2023/10/31 08:04:29;;;;;;;23.70;13.77;;;;;;;10.59;100.00;99786.06;4968153;28;20025;-93
2023/10/31 08:06:55;;;;;;;22.83;14.90;;;;;;;10.87;100.00;99800.69;4980904;28;20033;-90
2023/10/31 08:09:22;;;;;;;24.95;15.65;;;;;;;11.05;100.00;99787.03;4965907;28;20038;-90
2023/10/31 08:11:47;;;;;;;26.83;14.73;;;;;;;10.96;100.00;99790.69;4974653;28;20519;-89
2023/10/31 08:14:15;;;;;;;23.98;14.70;;;;;;;11.10;100.00;99792.94;4980374;28;20030;-90
2023/10/31 08:16:42;;;;;;;31.42;16.05;;;;;;;10.98;100.00;99805.09;5000598;28;20033;-92
2023/10/31 08:19:08;;;;;;;27.73;16.83;;;;;;;10.96;100.00;99801.66;4977767;28;20037;-89
2023/10/31 08:21:35;;;;;;;27.73;15.18;;;;;;;10.87;100.00;99800.69;4972407;28;20019;-89
2023/10/31 08:24:05;;;;;;;27.70;15.63;;;;;;;10.90;100.00;99794.03;4981060;28;20044;-90
2023/10/31 08:26:31;;;;;;;28.67;17.33;;;;;;;10.94;100.00;99807.28;4994780;28;20048;-88
2023/10/31 08:28:58;;;;;;;28.42;17.05;;;;;;;10.91;100.00;99812.19;4982839;28;20488;-90
2023/10/31 08:31:24;;;;;;;26.60;15.98;;;;;;;10.89;100.00;99808.72;4964951;28;20117;-90
2023/10/31 08:33:49;;;;;;;33.65;19.83;;;;;;;10.90;100.00;99814.06;4981807;28;20097;-90
2023/10/31 08:36:15;;;;;;;30.33;18.75;;;;;;;10.89;100.00;99816.94;4999824;28;20050;-90
2023/10/31 08:38:42;;;;;;;31.20;20.63;;;;;;;10.88;100.00;99817.97;4967860;28;20033;-90
2023/10/31 08:41:08;;;;;;;34.00;20.77;;;;;;;10.94;100.00;99823.72;4999652;28;20026;-90
2023/10/31 08:43:34;;;;;;;36.13;21.08;;;;;;;11.09;100.00;99818.59;4982607;28;20105;-90
2023/10/31 08:45:59;;;;;;;37.13;18.80;;;;;;;11.12;100.00;99818.31;4972498;28;20076;-91
2023/10/31 08:48:28;;;;;;;34.08;20.20;;;;;;;11.19;100.00;99815.81;4982277;28;20485;-90
2023/10/31 08:50:53;;;;;;;35.95;19.60;;;;;;;11.06;100.00;99820.78;4984079;28;20503;-90
2023/10/31 08:53:19;;;;;;;34.72;20.85;;;;;;;11.25;100.00;99831.66;4999702;28;20033;-90
2023/10/31 08:55:46;;;;;;;34.38;19.25;;;;;;;11.24;100.00;99837.28;4999423;28;20026;-90
2023/10/31 08:58:13;;;;;;;36.70;19.70;;;;;;;11.02;100.00;99851.22;4997545;28;20049;-91
2023/10/31 09:00:40;;;;;;;34.95;19.25;;;;;;;11.26;100.00;99847.06;5001273;28;20068;-92
2023/10/31 09:03:10;;;;;;;29.50;18.60;;;;;;;11.12;100.00;99851.19;4970402;28;20034;-91
2023/10/31 09:05:35;;;;;;;32.40;19.00;;;;;;;11.17;100.00;99857.06;4984884;28;20038;-91
2023/10/31 09:08:02;;;;;;;36.97;19.00;;;;;;;11.05;100.00;99869.22;4983647;28;20403;-91
2023/10/31 09:10:28;;;;;;;29.67;17.23;;;;;;;11.05;100.00;99866.47;4997803;28;20054;-91
2023/10/31 09:12:55;;;;;;;32.75;17.85;;;;;;;11.36;100.00;99869.84;4972894;28;20037;-87
2023/10/31 09:15:21;;;;;;;25.08;15.57;;;;;;;11.24;100.00;99878.41;4982748;28;20033;-90
2023/10/31 09:17:46;;;;;;;26.83;16.90;;;;;;;11.88;100.00;99868.41;4964872;28;20056;-90
2023/10/31 09:20:14;;;;;;;28.20;15.23;;;;;;;11.36;100.00;99878.06;4999161;28;20040;-91
2023/10/31 09:22:39;;;;;;;25.15;15.52;;;;;;;11.45;100.00;99890.00;4983982;28;20042;-91
2023/10/31 09:25:05;;;;;;;26.23;14.82;;;;;;;11.40;100.00;99890.44;4971973;28;20396;-91
2023/10/31 09:27:32;;;;;;;20.73;13.48;;;;;;;11.50;100.00;99903.25;4985605;28;20064;-91
2023/10/31 09:29:57;;;;;;;28.83;10.65;;;;;;;11.40;100.00;99895.91;4990454;28;20048;-92
2023/10/31 09:32:24;;;;;;;26.65;12.65;;;;;;;11.49;100.00;99902.34;5012999;28;20030;-92
2023/10/31 09:34:49;;;;;;;24.50;12.23;;;;;;;11.45;100.00;99900.94;4947997;28;20051;-92
2023/10/31 09:37:16;;;;;;;21.52;12.15;;;;;;;11.48;100.00;99906.13;4961630;28;20031;-91
2023/10/31 09:39:43;;;;;;;25.02;13.50;;;;;;;11.39;100.00;99910.63;4971186;28;20022;-90
2023/10/31 09:42:09;;;;;;;31.50;12.40;;;;;;;11.35;100.00;99913.84;4992860;28;20038;-89
2023/10/31 09:44:35;;;;;;;30.13;12.85;;;;;;;11.26;100.00;99920.22;4970836;28;20035;-89
2023/10/31 09:47:01;;;;;;;22.35;12.95;;;;;;;11.48;100.00;99917.09;4977544;28;20046;-91
2023/10/31 09:49:29;;;;;;;20.27;12.45;;;;;;;11.63;100.00;99922.94;4983154;28;20046;-91
2023/10/31 09:51:55;;;;;;;19.65;11.80;;;;;;;11.66;100.00;99922.66;4960082;28;20046;-91
2023/10/31 09:54:22;;;;;;;21.85;12.60;;;;;;;11.69;100.00;99925.09;4948871;28;20038;-91
2023/10/31 09:56:48;;;;;;;22.92;12.82;;;;;;;11.80;100.00;99931.38;4960072;28;20038;-89
2023/10/31 09:59:18;;;;;;;25.85;12.65;;;;;;;11.69;100.00;99933.31;4959101;28;20030;-90
2023/10/31 10:01:44;;;;;;;20.42;12.18;;;;;;;11.62;100.00;99934.91;4960882;28;20515;-93
2023/10/31 10:04:11;;;;;;;24.95;13.70;;;;;;;11.78;100.00;99943.34;4959544;28;20037;-91
2023/10/31 10:06:50;;;;;;;24.58;12.68;;;;;;;11.73;100.00;99944.84;4976517;28;20058;-91
2023/10/31 10:09:27;;;;;;;24.05;12.95;;;;;;;11.82;100.00;99946.66;4975637;28;20034;-92
2023/10/31 10:12:18;;;;;;;25.02;13.63;;;;;;;12.07;100.00;99949.75;4975028;28;20046;-94
2023/10/31 10:14:49;;;;;;;22.27;12.38;;;;;;;12.02;100.00;99955.69;4975641;28;20023;-94
2023/10/31 10:17:18;;;;;;;19.43;9.67;;;;;;;11.92;100.00;99957.59;4977040;28;20057;-94
2023/10/31 10:19:43;;;;;;;27.02;11.35;;;;;;;12.15;100.00;99960.81;4976031;28;20031;-94
2023/10/31 10:22:10;;;;;;;21.77;11.55;;;;;;;12.24;100.00;99957.13;4976044;28;20070;-95
2023/10/31 10:24:35;;;;;;;27.08;12.30;;;;;;;12.36;100.00;99963.25;4976561;28;20046;-93
2023/10/31 10:27:01;;;;;;;14.45;10.73;;;;;;;12.42;100.00;99959.91;4959924;28;20473;-94
2023/10/31 10:29:26;;;;;;;25.42;10.27;;;;;;;12.59;100.00;99965.56;4986123;28;20027;-94
2023/10/31 10:31:52;;;;;;;16.90;10.68;;;;;;;12.41;100.00;99971.91;4953358;28;20063;-94
2023/10/31 10:34:19;;;;;;;21.63;11.95;;;;;;;12.26;100.00;99979.78;4954405;28;20547;-94
2023/10/31 10:36:49;;;;;;;18.35;10.50;;;;;;;12.22;100.00;99981.13;4962296;28;20034;-93
2023/10/31 10:39:21;;;;;;;19.80;11.18;;;;;;;11.99;100.00;99988.06;4980954;28;20038;-93
2023/10/31 10:41:54;;;;;;;20.63;11.55;;;;;;;11.84;100.00;99980.31;4995022;28;20022;-94
2023/10/31 10:44:32;;;;;;;23.98;12.05;;;;;;;11.96;100.00;99986.47;4977374;28;20027;-94
2023/10/31 10:47:01;;;;;;;20.05;11.55;;;;;;;11.80;100.00;99992.56;4995480;28;20026;-94
2023/10/31 10:49:28;;;;;;;22.08;11.55;;;;;;;11.87;100.00;99992.84;4994537;28;20022;-93
2023/10/31 10:52:02;;;;;;;17.27;11.40;;;;;;;11.84;100.00;100002.25;4996356;28;20033;-93
2023/10/31 10:54:44;;;;;;;21.25;12.13;;;;;;;11.87;100.00;100004.69;4999257;28;20026;-93
2023/10/31 10:57:46;;;;;;;13.52;10.32;;;;;;;11.76;100.00;100004.88;4993098;28;20034;-93
2023/10/31 11:00:13;;;;;;;24.17;10.83;;;;;;;11.71;100.00;100010.81;4996383;28;20077;-94
2023/10/31 11:02:43;;;;;;;17.17;10.13;;;;;;;11.55;100.00;100019.66;5001829;28;20320;-93
2023/10/31 11:05:09;;;;;;;22.98;11.75;;;;;;;11.69;100.00;100015.59;4988115;28;20026;-93
2023/10/31 11:07:37;;;;;;;17.08;10.50;;;;;;;11.68;100.00;100018.47;4994867;28;20030;-93